createdAt,value
2017-05-12T00:02:01.128Z,4.26
2017-05-12T00:04:27.943Z,4.64
2017-05-12T00:06:54.719Z,4.46
2017-05-12T00:09:21.559Z,4.00
2017-05-12T00:11:48.335Z,4.24
2017-05-12T00:14:15.139Z,4.62
2017-05-12T00:16:42.711Z,4.42
2017-05-12T00:19:09.515Z,4.40
2017-05-12T00:21:37.036Z,4.80
2017-05-12T00:24:03.853Z,4.44
2017-05-12T00:26:30.637Z,4.32
2017-05-12T00:28:57.474Z,4.78
2017-05-12T00:31:24.280Z,4.78
2017-05-12T00:33:51.063Z,4.50
2017-05-12T00:36:17.943Z,4.74
2017-05-12T00:38:44.758Z,4.22
2017-05-12T00:41:11.539Z,5.18
2017-05-12T00:43:38.377Z,5.12
2017-05-12T00:46:05.166Z,4.98
2017-05-12T00:48:32.703Z,4.52
2017-05-12T00:51:00.278Z,5.60
2017-05-12T00:53:27.060Z,5.88
2017-05-12T00:55:53.874Z,5.50
2017-05-12T00:58:20.702Z,5.54
2017-05-12T01:00:47.516Z,6.36
2017-05-12T01:03:14.480Z,5.96
2017-05-12T01:05:41.263Z,5.68
2017-05-12T01:08:08.044Z,4.70
2017-05-12T01:10:34.916Z,5.36
2017-05-12T01:13:01.707Z,5.88
2017-05-12T01:15:28.479Z,4.92
2017-05-12T01:17:55.305Z,5.20
2017-05-12T01:20:22.115Z,5.42
2017-05-12T01:22:48.908Z,5.98
2017-05-12T01:25:15.751Z,5.86
2017-05-12T01:27:42.547Z,6.20
2017-05-12T01:30:10.128Z,5.56
2017-05-12T01:32:36.962Z,6.44
2017-05-12T01:35:03.772Z,6.20
2017-05-12T01:37:30.629Z,5.64
2017-05-12T01:39:57.456Z,5.94
2017-05-12T01:42:24.247Z,6.96
2017-05-12T01:44:51.075Z,5.98
2017-05-12T01:47:18.646Z,5.18
2017-05-12T01:49:45.427Z,6.30
2017-05-12T01:52:12.255Z,6.76
2017-05-12T01:54:39.035Z,5.74
2017-05-12T01:57:05.826Z,6.24
2017-05-12T01:59:33.395Z,6.44
2017-05-12T02:02:00.179Z,6.52
2017-05-12T02:04:27.047Z,5.98
2017-05-12T02:06:53.871Z,5.34
2017-05-12T02:09:21.731Z,6.30
2017-05-12T02:11:48.584Z,6.34
2017-05-12T02:14:15.368Z,5.62
2017-05-12T02:16:42.159Z,6.24
2017-05-12T02:19:09.031Z,6.76
2017-05-12T02:21:35.813Z,6.38
2017-05-12T02:24:03.341Z,6.98
2017-05-12T02:26:30.175Z,5.40
2017-05-12T02:28:56.955Z,6.28
2017-05-12T02:31:23.740Z,5.52
2017-05-12T02:33:51.388Z,6.82
2017-05-12T02:36:18.208Z,5.56
2017-05-12T02:38:45.728Z,5.52
2017-05-12T02:41:12.564Z,6.14
2017-05-12T02:43:39.347Z,6.08
2017-05-12T02:46:06.128Z,6.50
2017-05-12T02:48:32.979Z,5.84
2017-05-12T02:50:59.760Z,7.06
2017-05-12T02:53:26.543Z,6.36
2017-05-12T02:55:53.443Z,6.34
2017-05-12T02:58:20.979Z,5.72
2017-05-12T03:00:48.099Z,6.08
2017-05-12T03:03:14.924Z,7.24
2017-05-12T03:05:41.756Z,7.82
2017-05-12T03:08:08.535Z,6.30
2017-05-12T03:10:35.319Z,5.92
2017-05-12T03:13:02.155Z,6.04
2017-05-12T03:15:28.942Z,6.36
2017-05-12T03:17:55.816Z,5.44
2017-05-12T03:20:22.624Z,6.18
2017-05-12T03:22:49.500Z,6.54
2017-05-12T03:25:16.331Z,6.38
2017-05-12T03:27:43.105Z,7.06
2017-05-12T03:30:09.970Z,6.68
2017-05-12T03:32:37.491Z,6.04
2017-05-12T03:35:04.320Z,5.80
2017-05-12T03:37:31.103Z,7.38
2017-05-12T03:39:57.895Z,7.38
2017-05-12T03:42:25.459Z,6.74
2017-05-12T03:44:52.300Z,6.10
2017-05-12T03:47:19.188Z,6.70
2017-05-12T03:49:45.978Z,6.52
2017-05-12T03:52:12.803Z,6.98
2017-05-12T03:54:39.588Z,6.88
2017-05-12T03:57:07.111Z,6.74
2017-05-12T03:59:33.939Z,8.26
2017-05-12T04:02:00.715Z,6.34
2017-05-12T04:04:27.491Z,7.40
2017-05-12T04:06:54.347Z,7.66
2017-05-12T04:09:21.155Z,6.76
2017-05-12T04:11:48.728Z,8.34
2017-05-12T04:14:15.567Z,7.54
2017-05-12T04:16:42.348Z,8.36
2017-05-12T04:19:09.135Z,7.62
2017-05-12T04:21:35.952Z,7.10
2017-05-12T04:24:02.735Z,7.70
2017-05-12T04:26:29.648Z,7.72
2017-05-12T04:28:56.435Z,8.68
2017-05-12T04:31:23.233Z,8.14
2017-05-12T04:33:50.805Z,8.66
2017-05-12T04:36:17.647Z,8.68
2017-05-12T04:38:44.428Z,8.70
2017-05-12T04:41:11.944Z,8.02
2017-05-12T04:43:38.779Z,8.04
2017-05-12T04:46:05.563Z,10.12
2017-05-12T04:48:32.393Z,9.10
2017-05-12T04:50:59.212Z,8.58
2017-05-12T04:53:26.037Z,8.18
2017-05-12T04:55:52.899Z,7.90
2017-05-12T04:58:19.703Z,8.32
2017-05-12T05:00:46.497Z,9.92
2017-05-12T05:03:14.064Z,9.40
2017-05-12T05:05:40.880Z,10.72
2017-05-12T05:08:08.402Z,10.62
2017-05-12T05:10:35.331Z,10.04
2017-05-12T05:13:02.116Z,9.34
2017-05-12T05:15:28.936Z,10.32
2017-05-12T05:17:55.840Z,10.62
2017-05-12T05:20:22.742Z,10.10
2017-05-12T05:22:49.560Z,10.04
2017-05-12T05:25:16.346Z,10.10
2017-05-12T05:27:43.228Z,9.58
2017-05-12T05:30:17.019Z,9.52
2017-05-12T05:32:43.852Z,9.18
2017-05-12T05:35:10.635Z,8.64
2017-05-12T05:37:37.420Z,7.90
2017-05-12T05:40:04.975Z,8.82
2017-05-12T05:42:31.768Z,9.06
2017-05-12T05:44:58.536Z,8.28
2017-05-12T05:47:25.373Z,8.54
2017-05-12T05:49:52.245Z,10.10
2017-05-12T05:52:19.060Z,8.70
2017-05-12T05:54:45.846Z,7.88
2017-05-12T05:57:12.712Z,8.40
2017-05-12T05:59:39.490Z,8.18
2017-05-12T06:02:07.011Z,7.68
2017-05-12T06:04:33.854Z,7.16
2017-05-12T06:07:01.376Z,7.54
2017-05-12T06:09:28.163Z,8.50
2017-05-12T06:11:54.988Z,7.36
2017-05-12T06:14:21.777Z,7.78
2017-05-12T06:16:48.581Z,8.14
2017-05-12T06:19:15.416Z,8.88
2017-05-12T06:21:42.308Z,8.50
2017-05-12T06:24:09.095Z,7.96
2017-05-12T06:26:36.711Z,7.50
2017-05-12T06:29:03.499Z,7.58
2017-05-12T06:31:30.279Z,7.76
2017-05-12T06:33:57.119Z,7.56
2017-05-12T06:36:24.656Z,7.56
2017-05-12T06:38:51.465Z,7.08
2017-05-12T06:41:18.355Z,8.18
2017-05-12T06:43:45.232Z,7.28
2017-05-12T06:46:12.023Z,7.40
2017-05-12T06:48:38.795Z,7.60
2017-05-12T06:51:05.620Z,7.10
2017-05-12T06:53:32.479Z,7.08
2017-05-12T06:55:59.996Z,7.80
2017-05-12T06:58:26.784Z,8.36
2017-05-12T07:00:53.631Z,7.78
2017-05-12T07:03:21.423Z,6.94
2017-05-12T07:05:48.327Z,6.80
2017-05-12T07:08:15.108Z,7.22
2017-05-12T07:10:41.891Z,6.80
2017-05-12T07:13:08.728Z,8.24
2017-05-12T07:15:35.503Z,7.02
2017-05-12T07:18:02.291Z,6.58
2017-05-12T07:20:29.869Z,6.94
2017-05-12T07:22:56.678Z,7.52
2017-05-12T07:25:23.497Z,7.78
2017-05-12T07:27:51.084Z,7.82
2017-05-12T07:30:17.877Z,8.10
2017-05-12T07:32:44.668Z,7.28
2017-05-12T07:35:11.615Z,7.26
2017-05-12T07:37:39.248Z,7.56
2017-05-12T07:40:06.072Z,7.78
2017-05-12T07:42:32.849Z,6.66
2017-05-12T07:44:59.688Z,7.72
2017-05-12T07:47:26.503Z,7.20
2017-05-12T07:49:53.288Z,7.04
2017-05-12T07:52:20.181Z,6.92
2017-05-12T07:54:46.971Z,7.38
2017-05-12T07:57:14.502Z,6.54
2017-05-12T07:59:42.088Z,7.26
2017-05-12T08:02:08.954Z,7.02
2017-05-12T08:04:35.754Z,6.78
2017-05-12T08:07:02.575Z,7.42
2017-05-12T08:09:29.367Z,6.84
2017-05-12T08:11:56.894Z,6.64
2017-05-12T08:14:23.731Z,6.56
2017-05-12T08:16:51.289Z,7.28
2017-05-12T08:19:18.873Z,6.52
2017-05-12T08:21:45.699Z,6.90
2017-05-12T08:24:12.523Z,6.00
2017-05-12T08:26:39.303Z,5.66
2017-05-12T08:29:06.099Z,7.04
2017-05-12T08:31:32.952Z,6.70
2017-05-12T08:33:59.791Z,6.46
2017-05-12T08:36:27.319Z,6.50
2017-05-12T08:38:54.144Z,7.24
2017-05-12T08:41:20.947Z,7.28
2017-05-12T08:43:47.722Z,7.76
2017-05-12T08:46:15.294Z,6.98
2017-05-12T08:48:42.140Z,6.54
2017-05-12T08:51:08.915Z,7.32
2017-05-12T08:53:36.447Z,6.88
2017-05-12T08:56:03.292Z,6.50
2017-05-12T08:58:30.819Z,6.78
2017-05-12T09:00:57.625Z,6.92
2017-05-12T09:03:24.460Z,6.84
2017-05-12T09:05:51.268Z,5.76
2017-05-12T09:08:18.057Z,6.84
2017-05-12T09:10:45.663Z,5.80
2017-05-12T09:13:12.448Z,6.66
2017-05-12T09:15:39.244Z,6.94
2017-05-12T09:18:06.080Z,5.94
2017-05-12T09:20:33.645Z,6.30
2017-05-12T09:23:00.430Z,5.72
2017-05-12T09:25:27.216Z,6.02
2017-05-12T09:27:54.068Z,5.50
2017-05-12T09:30:20.931Z,5.48
2017-05-12T09:32:48.485Z,4.74
2017-05-12T09:35:16.058Z,4.82
2017-05-12T09:37:42.900Z,5.40
2017-05-12T09:40:09.685Z,4.70
2017-05-12T09:42:44.133Z,5.20
2017-05-12T09:45:10.931Z,5.16
2017-05-12T09:47:37.772Z,5.48
2017-05-12T09:50:04.548Z,4.94
2017-05-12T09:52:31.335Z,5.88
2017-05-12T09:54:58.159Z,5.96
2017-05-12T09:57:24.944Z,5.38
2017-05-12T09:59:51.793Z,5.90
2017-05-12T10:02:18.709Z,5.34
2017-05-12T10:04:46.331Z,4.14
2017-05-12T10:07:13.147Z,5.14
2017-05-12T10:09:39.931Z,5.70
2017-05-12T10:12:06.795Z,6.20
2017-05-12T10:14:33.575Z,5.38
2017-05-12T10:17:01.100Z,5.36
2017-05-12T10:19:27.983Z,4.74
2017-05-12T10:21:54.768Z,5.28
2017-05-12T10:24:22.308Z,5.36
2017-05-12T10:26:49.894Z,4.84
2017-05-12T10:29:16.693Z,5.94
2017-05-12T10:31:44.220Z,6.02
2017-05-12T10:34:11.036Z,5.80
2017-05-12T10:36:37.824Z,5.36
2017-05-12T10:39:04.668Z,5.84
2017-05-12T10:41:31.454Z,5.18
2017-05-12T10:44:06.037Z,5.76
2017-05-12T10:46:32.827Z,5.46
2017-05-12T10:49:06.800Z,4.80
2017-05-12T10:51:33.589Z,5.84
2017-05-12T10:54:00.392Z,4.98
2017-05-12T10:56:27.219Z,5.40
2017-05-12T10:58:54.028Z,5.82
2017-05-12T11:01:20.937Z,4.76
2017-05-12T11:03:47.723Z,5.44
2017-05-12T11:06:14.504Z,5.52
2017-05-12T11:08:41.320Z,6.18
2017-05-12T11:11:08.153Z,5.54
2017-05-12T11:13:34.939Z,5.76
2017-05-12T11:16:01.720Z,5.04
2017-05-12T11:18:28.631Z,6.38
2017-05-12T11:20:55.404Z,5.42
2017-05-12T11:23:22.203Z,6.12
2017-05-12T11:25:49.048Z,5.82
2017-05-12T11:28:15.827Z,6.68
2017-05-12T11:30:43.392Z,5.86
2017-05-12T11:33:10.215Z,5.90
2017-05-12T11:35:37.008Z,5.78
2017-05-12T11:38:03.785Z,6.18
2017-05-12T11:40:30.627Z,5.40
2017-05-12T11:42:57.436Z,5.64
2017-05-12T11:45:24.228Z,5.94
2017-05-12T11:47:51.820Z,6.42
2017-05-12T11:50:18.621Z,5.48
2017-05-12T11:52:45.412Z,5.62
2017-05-12T11:55:12.248Z,9.28
2017-05-12T11:57:39.040Z,7.48
2017-05-12T12:00:05.839Z,5.60
2017-05-12T12:02:32.660Z,5.80
2017-05-12T12:04:59.440Z,5.72
2017-05-12T12:07:26.291Z,5.40
2017-05-12T12:09:53.080Z,6.08
2017-05-12T12:12:19.907Z,6.20
2017-05-12T12:14:46.802Z,6.80
2017-05-12T12:17:13.591Z,6.26
2017-05-12T12:19:40.379Z,5.48
2017-05-12T12:22:07.229Z,5.38
2017-05-12T12:24:34.017Z,5.52
2017-05-12T12:27:00.795Z,6.58
2017-05-12T12:29:27.644Z,5.40
2017-05-12T12:31:55.208Z,6.06
2017-05-12T12:34:22.739Z,6.86
2017-05-12T12:36:50.334Z,6.40
2017-05-12T12:39:17.111Z,6.14
2017-05-12T12:41:44.700Z,6.04
2017-05-12T12:44:11.563Z,6.12
2017-05-12T12:46:38.364Z,5.88
2017-05-12T12:49:05.343Z,5.96
2017-05-12T12:51:32.175Z,5.54
2017-05-12T12:53:59.695Z,6.30
2017-05-12T12:56:26.606Z,5.50
2017-05-12T12:58:53.407Z,5.18
2017-05-12T13:01:20.193Z,6.06
2017-05-12T13:03:47.032Z,5.60
2017-05-12T13:06:14.637Z,5.64
2017-05-12T13:08:41.424Z,5.34
2017-05-12T13:11:08.307Z,4.74
2017-05-12T13:13:35.163Z,5.02
2017-05-12T13:16:02.759Z,4.58
2017-05-12T13:18:29.544Z,4.02
2017-05-12T13:20:57.163Z,4.60
2017-05-12T13:23:23.960Z,4.36
2017-05-12T13:25:50.820Z,4.34
2017-05-12T13:28:17.768Z,4.38
2017-05-12T13:30:45.292Z,4.16
2017-05-12T13:33:12.086Z,4.40
2017-05-12T13:35:39.015Z,4.44
2017-05-12T13:38:05.799Z,3.84
2017-05-12T13:40:33.363Z,3.64
2017-05-12T13:43:00.147Z,4.02
2017-05-12T13:45:26.983Z,3.80
2017-05-12T13:47:53.783Z,3.62
2017-05-12T13:50:20.579Z,3.62
2017-05-12T13:52:47.399Z,4.06
2017-05-12T13:55:14.223Z,3.64
2017-05-12T13:57:41.799Z,4.64
2017-05-12T14:00:08.608Z,3.70
2017-05-12T14:02:35.388Z,3.84
2017-05-12T14:05:02.235Z,4.00
2017-05-12T14:07:29.015Z,4.56
2017-05-12T14:09:55.845Z,4.68
2017-05-12T14:12:22.699Z,3.98
2017-05-12T14:14:49.516Z,4.80
2017-05-12T14:17:16.344Z,3.80
2017-05-12T14:19:43.159Z,4.68
2017-05-12T14:22:10.016Z,4.52
2017-05-12T14:24:36.848Z,4.24
2017-05-12T14:27:03.632Z,5.70
2017-05-12T14:29:37.516Z,6.00
2017-05-12T14:32:04.296Z,6.30
2017-05-12T14:34:31.147Z,6.30
2017-05-12T14:36:58.671Z,5.72
2017-05-12T14:39:25.455Z,5.62
2017-05-12T14:41:52.295Z,6.12
2017-05-12T14:44:19.096Z,5.12
2017-05-12T14:46:45.883Z,5.80
2017-05-12T14:49:12.721Z,6.20
2017-05-12T14:51:40.248Z,5.42
2017-05-12T14:54:07.809Z,6.04
2017-05-12T14:56:34.651Z,5.62
2017-05-12T14:59:01.436Z,7.04
2017-05-12T15:01:28.255Z,5.56
2017-05-12T15:03:55.084Z,5.20
2017-05-12T15:06:21.903Z,6.40
2017-05-12T15:08:49.591Z,6.88
2017-05-12T15:11:16.420Z,11.00
2017-05-12T15:13:43.939Z,9.44
2017-05-12T15:16:10.794Z,8.32
2017-05-12T15:18:38.375Z,9.62
2017-05-12T15:21:05.164Z,10.20
2017-05-12T15:23:32.731Z,8.74
2017-05-12T15:25:59.508Z,8.64
2017-05-12T15:28:26.288Z,10.62
2017-05-12T15:30:53.129Z,8.50
2017-05-12T15:33:19.992Z,7.60
2017-05-12T15:35:46.779Z,6.04
2017-05-12T15:38:13.615Z,6.26
2017-05-12T15:40:40.392Z,6.92
2017-05-12T15:43:07.919Z,6.76
2017-05-12T15:45:34.731Z,5.92
2017-05-12T15:48:01.512Z,6.52
2017-05-12T15:50:28.355Z,6.90
2017-05-12T15:52:55.187Z,6.64
2017-05-12T15:55:21.975Z,5.96
2017-05-12T15:57:48.820Z,6.02
2017-05-12T16:00:15.615Z,6.00
2017-05-12T16:02:42.396Z,5.80
2017-05-12T16:05:09.251Z,6.06
2017-05-12T16:07:36.031Z,6.02
2017-05-12T16:10:02.830Z,6.38
2017-05-12T16:12:29.759Z,5.82
2017-05-12T16:14:56.544Z,5.66
2017-05-12T16:17:23.335Z,5.88
2017-05-12T16:19:50.950Z,6.82
2017-05-12T16:22:17.777Z,7.84
2017-05-12T16:24:44.555Z,6.24
2017-05-12T16:27:11.359Z,5.88
2017-05-12T16:29:38.919Z,6.02
2017-05-12T16:32:06.832Z,5.90
2017-05-12T16:34:33.612Z,6.42
2017-05-12T16:37:00.447Z,7.20
2017-05-12T16:39:27.239Z,11.20
2017-05-12T16:41:54.768Z,8.02
2017-05-12T16:44:21.635Z,7.68
2017-05-12T16:46:48.449Z,9.44
2017-05-12T16:49:16.076Z,7.48
2017-05-12T16:51:42.864Z,6.80
2017-05-12T16:54:09.771Z,5.68
2017-05-12T16:56:36.616Z,7.62
2017-05-12T16:59:03.399Z,7.40
2017-05-12T17:01:30.992Z,7.48
2017-05-12T17:03:57.823Z,6.78
2017-05-12T17:06:24.608Z,7.16
2017-05-12T17:08:52.160Z,6.42
2017-05-12T17:11:19.000Z,9.80
2017-05-12T17:13:45.850Z,7.40
2017-05-12T17:16:12.715Z,8.12
2017-05-12T17:18:39.495Z,7.58
2017-05-12T17:21:06.335Z,9.68
2017-05-12T17:23:33.168Z,11.34
2017-05-12T17:25:59.956Z,12.34
2017-05-12T17:28:27.479Z,10.84
2017-05-12T17:30:54.380Z,10.12
2017-05-12T17:33:21.225Z,8.42
2017-05-12T17:35:48.004Z,8.68
2017-05-12T17:38:14.887Z,9.56
2017-05-12T17:40:41.682Z,8.28
2017-05-12T17:43:08.459Z,8.02
2017-05-12T17:45:36.016Z,7.64
2017-05-12T17:48:03.616Z,8.44
2017-05-12T17:50:30.450Z,9.18
2017-05-12T17:52:57.243Z,9.04
2017-05-12T17:55:24.076Z,9.24
2017-05-12T17:57:50.947Z,9.76
2017-05-12T18:00:17.747Z,10.26
2017-05-12T18:02:44.523Z,9.76
2017-05-12T18:05:12.169Z,11.30
2017-05-12T18:07:39.700Z,10.34
2017-05-12T18:10:06.484Z,10.62
2017-05-12T18:12:33.327Z,12.34
2017-05-12T18:15:00.107Z,13.28
2017-05-12T18:17:26.903Z,12.98
2017-05-12T18:19:53.752Z,14.94
2017-05-12T18:22:21.383Z,16.16
2017-05-12T18:24:48.172Z,14.74
2017-05-12T18:27:15.007Z,14.98
2017-05-12T18:29:41.823Z,15.10
2017-05-12T18:32:08.599Z,18.30
2017-05-12T18:34:35.416Z,17.02
2017-05-12T18:37:02.245Z,16.38
2017-05-12T18:39:29.035Z,14.22
2017-05-12T18:41:55.824Z,11.64
2017-05-12T18:44:23.513Z,12.80
2017-05-12T18:46:50.335Z,12.24
2017-05-12T18:49:17.127Z,11.68
2017-05-12T18:51:44.697Z,10.48
2017-05-12T18:54:11.480Z,10.96
2017-05-12T18:56:38.263Z,11.74
2017-05-12T18:59:05.084Z,11.50
2017-05-12T19:01:31.868Z,12.20
2017-05-12T19:03:59.395Z,10.74
2017-05-12T19:06:26.223Z,11.36
2017-05-12T19:08:53.064Z,10.56
2017-05-12T19:11:19.934Z,12.16
2017-05-12T19:13:46.759Z,12.24
2017-05-12T19:16:13.591Z,12.66
2017-05-12T19:18:40.391Z,13.04
2017-05-12T19:21:07.923Z,13.42
2017-05-12T19:23:34.857Z,12.98
2017-05-12T19:26:01.631Z,12.48
2017-05-12T19:28:28.451Z,13.30
2017-05-12T19:30:55.307Z,15.02
2017-05-12T19:33:22.133Z,13.84
2017-05-12T19:35:48.956Z,14.14
2017-05-12T19:38:15.776Z,14.72
2017-05-12T19:40:42.557Z,15.50
2017-05-12T19:43:10.163Z,15.70
2017-05-12T19:45:36.995Z,13.56
2017-05-12T19:48:03.771Z,14.74
2017-05-12T19:50:31.339Z,15.54
2017-05-12T19:52:58.115Z,15.22
2017-05-12T19:55:24.924Z,13.14
2017-05-12T19:57:51.767Z,13.56
2017-05-12T20:00:18.550Z,12.80
2017-05-12T20:02:45.375Z,13.96
2017-05-12T20:05:12.155Z,15.26
2017-05-12T20:07:38.974Z,12.52
2017-05-12T20:10:05.821Z,13.22
2017-05-12T20:12:33.348Z,13.64
2017-05-12T20:15:00.133Z,12.86
2017-05-12T20:17:26.988Z,13.20
2017-05-12T20:19:53.789Z,14.40
2017-05-12T20:22:20.634Z,14.94
2017-05-12T20:24:47.472Z,14.72
2017-05-12T20:27:14.252Z,15.18
2017-05-12T20:29:41.780Z,14.92
2017-05-12T20:32:09.340Z,14.46
2017-05-12T20:34:36.864Z,17.82
2017-05-12T20:37:03.704Z,17.84
2017-05-12T20:39:31.225Z,15.94
2017-05-12T20:41:58.012Z,17.34
2017-05-12T20:44:24.863Z,16.52
2017-05-12T20:46:51.706Z,18.00
2017-05-12T20:49:18.491Z,17.20
2017-05-12T20:51:45.323Z,17.36
2017-05-12T20:54:12.173Z,17.12
2017-05-12T20:56:38.955Z,15.66
2017-05-12T20:59:05.812Z,17.88
2017-05-12T21:01:32.592Z,17.60
2017-05-12T21:04:00.128Z,18.24
2017-05-12T21:06:26.944Z,16.98
2017-05-12T21:08:53.736Z,17.98
2017-05-12T21:11:20.626Z,17.66
2017-05-12T21:13:48.161Z,18.50
2017-05-12T21:16:15.000Z,19.48
2017-05-12T21:18:42.522Z,20.08
2017-05-12T21:21:09.326Z,18.82
2017-05-12T21:23:36.154Z,18.16
2017-05-12T21:26:02.976Z,19.34
2017-05-12T21:28:29.763Z,17.34
2017-05-12T21:30:56.580Z,17.38
2017-05-12T21:33:23.392Z,17.44
2017-05-12T21:35:50.968Z,19.58
2017-05-12T21:38:17.757Z,17.70
2017-05-12T21:40:45.275Z,17.10
2017-05-12T21:43:12.103Z,17.52
2017-05-12T21:45:38.895Z,17.96
2017-05-12T21:48:05.690Z,19.44
2017-05-12T21:50:33.267Z,16.66
2017-05-12T21:53:00.103Z,16.58
2017-05-12T21:55:26.920Z,18.92
2017-05-12T21:57:53.753Z,16.86
2017-05-12T22:00:20.544Z,17.24
2017-05-12T22:02:48.067Z,16.40
2017-05-12T22:05:14.891Z,16.60
2017-05-12T22:07:41.679Z,17.18
2017-05-12T22:10:08.519Z,15.82
2017-05-12T22:12:35.414Z,17.22
2017-05-12T22:15:02.248Z,16.38
2017-05-12T22:17:29.022Z,16.20
2017-05-12T22:19:55.879Z,16.20
2017-05-12T22:22:23.452Z,14.90
2017-05-12T22:24:50.232Z,14.70
2017-05-12T22:27:17.051Z,15.22
2017-05-12T22:29:43.872Z,14.88
2017-05-12T22:32:10.672Z,15.42
2017-05-12T22:34:38.277Z,15.90
2017-05-12T22:37:05.060Z,13.50
2017-05-12T22:39:32.623Z,13.70
2017-05-12T22:41:59.412Z,13.22
2017-05-12T22:44:26.193Z,12.64
2017-05-12T22:46:53.087Z,13.10
2017-05-12T22:49:20.619Z,13.86
2017-05-12T22:51:47.395Z,12.20
2017-05-12T22:54:14.219Z,11.00
2017-05-12T22:56:41.012Z,11.96
2017-05-12T22:59:08.628Z,12.08
2017-05-12T23:01:35.435Z,11.84
2017-05-12T23:04:02.215Z,11.44
2017-05-12T23:06:29.816Z,11.94
2017-05-12T23:08:56.591Z,12.60
2017-05-12T23:11:24.110Z,12.42
2017-05-12T23:13:50.936Z,12.62
2017-05-12T23:16:17.723Z,12.76
2017-05-12T23:18:44.516Z,12.94
2017-05-12T23:21:12.071Z,13.44
2017-05-12T23:23:38.899Z,12.38
2017-05-12T23:26:05.743Z,14.24
2017-05-12T23:28:32.555Z,13.72
2017-05-12T23:30:59.332Z,14.46
2017-05-12T23:33:26.155Z,14.80
2017-05-12T23:35:52.935Z,13.62
2017-05-12T23:38:20.459Z,13.78
2017-05-12T23:40:47.283Z,14.32
2017-05-12T23:43:14.096Z,13.20
2017-05-12T23:45:40.903Z,13.20
2017-05-12T23:48:07.762Z,12.90
2017-05-12T23:50:34.553Z,13.60
2017-05-12T23:53:01.356Z,12.80
2017-05-12T23:55:28.243Z,12.92
2017-05-12T23:57:55.015Z,13.20
